createdAt,value
2018-10-06T00:00:36.742Z,10.88
2018-10-06T00:01:36.494Z,10.88
2018-10-06T00:02:36.747Z,10.95
2018-10-06T00:03:36.733Z,10.91
2018-10-06T00:04:36.754Z,10.77
2018-10-06T00:05:36.487Z,10.8
2018-10-06T00:06:36.738Z,10.79
2018-10-06T00:07:36.498Z,10.77
2018-10-06T00:08:36.737Z,10.69
2018-10-06T00:09:36.479Z,10.73
2018-10-06T00:10:36.494Z,10.75
2018-10-06T00:11:36.743Z,10.8
2018-10-06T00:12:36.219Z,10.8
2018-10-06T00:13:36.752Z,10.79
2018-10-06T00:14:36.742Z,10.85
2018-10-06T00:15:36.728Z,10.84
2018-10-06T00:16:36.243Z,10.85
2018-10-06T00:17:36.484Z,10.87
2018-10-06T00:18:36.731Z,10.91
2018-10-06T00:19:36.240Z,10.75
2018-10-06T00:20:36.753Z,10.7
2018-10-06T00:21:36.894Z,10.69
2018-10-06T00:22:36.750Z,10.75
2018-10-06T00:23:36.490Z,10.69
2018-10-06T00:24:36.740Z,10.69
2018-10-06T00:25:36.502Z,10.65
2018-10-06T00:26:36.739Z,10.63
2018-10-06T00:27:36.480Z,10.69
2018-10-06T00:28:36.760Z,10.76
2018-10-06T00:29:36.500Z,10.65
2018-10-06T00:30:36.478Z,10.77
2018-10-06T00:31:36.470Z,10.66
2018-10-06T00:32:36.715Z,10.7
2018-10-06T00:33:36.706Z,10.69
2018-10-06T00:34:36.695Z,10.75
2018-10-06T00:35:36.433Z,10.73
2018-10-06T00:36:36.675Z,10.63
2018-10-06T00:37:36.671Z,10.66
2018-10-06T00:38:36.655Z,10.61
2018-10-06T00:39:36.656Z,10.66
2018-10-06T00:40:36.386Z,10.76
2018-10-06T00:41:36.620Z,10.77
2018-10-06T00:42:36.618Z,10.8
2018-10-06T00:43:36.350Z,10.84
2018-10-06T00:44:36.605Z,10.85
2018-10-06T00:45:36.582Z,10.85
2018-10-06T00:46:36.578Z,10.85
2018-10-06T00:47:36.560Z,10.85
2018-10-06T00:48:36.558Z,10.87
2018-10-06T00:49:36.035Z,10.87
2018-10-06T00:50:36.542Z,10.76
2018-10-06T00:51:36.523Z,10.8
2018-10-06T00:52:36.515Z,10.75
2018-10-06T00:53:36.252Z,10.9
2018-10-06T00:54:36.238Z,10.85
2018-10-06T00:55:36.490Z,10.91
2018-10-06T00:56:36.490Z,10.85
2018-10-06T00:57:36.463Z,10.97
2018-10-06T00:58:36.202Z,10.88
2018-10-06T00:59:36.442Z,10.88
2018-10-06T01:00:36.434Z,10.79
2018-10-06T01:01:36.169Z,10.84
2018-10-06T01:02:36.420Z,10.7
2018-10-06T01:03:36.408Z,10.83
2018-10-06T01:04:36.390Z,10.67
2018-10-06T01:05:36.391Z,10.66
2018-10-06T01:06:36.123Z,10.67
2018-10-06T01:07:36.367Z,10.67
2018-10-06T01:08:36.096Z,10.65
2018-10-06T01:09:36.091Z,10.67
2018-10-06T01:10:36.401Z,10.63
2018-10-06T01:11:36.328Z,10.59
2018-10-06T01:12:36.059Z,10.52
2018-10-06T01:13:36.302Z,10.63
2018-10-06T01:14:36.298Z,10.58
2018-10-06T01:15:36.292Z,10.55
2018-10-06T01:16:36.284Z,10.54
2018-10-06T01:17:36.260Z,10.49
2018-10-06T01:18:36.259Z,10.51
2018-10-06T01:19:36.242Z,10.51
2018-10-06T01:20:36.239Z,10.47
2018-10-06T01:21:35.710Z,10.44
2018-10-06T01:22:36.211Z,10.49
2018-10-06T01:23:36.202Z,10.44
2018-10-06T01:24:35.939Z,10.52
2018-10-06T01:25:35.930Z,10.47
2018-10-06T01:26:36.170Z,10.44
2018-10-06T01:27:36.166Z,10.54
2018-10-06T01:28:35.645Z,10.51
2018-10-06T01:29:36.138Z,10.44
2018-10-06T01:30:36.132Z,10.41
2018-10-06T01:31:35.866Z,10.41
2018-10-06T01:32:35.856Z,10.36
2018-10-06T01:33:36.100Z,10.32
2018-10-06T01:34:36.096Z,10.44
2018-10-06T01:35:36.083Z,10.31
2018-10-06T01:36:35.814Z,10.39
2018-10-06T01:37:36.062Z,10.28
2018-10-06T01:38:36.053Z,10.31
2018-10-06T01:39:35.537Z,10.31
2018-10-06T01:40:35.780Z,10.25
2018-10-06T01:41:36.022Z,10.39
2018-10-06T01:42:36.008Z,10.39
2018-10-06T01:43:35.748Z,10.38
2018-10-06T01:44:35.732Z,10.38
2018-10-06T01:45:35.976Z,10.31
2018-10-06T01:46:35.715Z,10.39
2018-10-06T01:47:35.957Z,10.42
2018-10-06T01:48:35.951Z,10.35
2018-10-06T01:49:35.689Z,10.31
2018-10-06T01:50:35.927Z,10.36
2018-10-06T01:51:35.923Z,10.38
2018-10-06T01:52:35.396Z,10.33
2018-10-06T01:53:35.648Z,10.44
2018-10-06T01:54:35.892Z,10.41
2018-10-06T01:55:35.640Z,10.46
2018-10-06T01:56:35.870Z,10.51
2018-10-06T01:57:35.855Z,10.57
2018-10-06T01:58:35.596Z,10.57
2018-10-06T01:59:35.840Z,10.57
2018-10-06T02:00:35.830Z,10.58
2018-10-06T02:01:35.829Z,10.59
2018-10-06T02:02:35.552Z,10.61
2018-10-06T02:03:35.805Z,10.63
2018-10-06T02:04:35.527Z,10.63
2018-10-06T02:05:35.528Z,10.65
2018-10-06T02:06:35.765Z,10.69
2018-10-06T02:07:35.751Z,10.7
2018-10-06T02:08:35.742Z,10.76
2018-10-06T02:09:35.743Z,10.65
2018-10-06T02:10:35.721Z,10.63
2018-10-06T02:11:35.717Z,10.65
2018-10-06T02:12:35.455Z,10.59
2018-10-06T02:13:35.183Z,10.59
2018-10-06T02:14:35.427Z,10.58
2018-10-06T02:15:35.416Z,10.61
2018-10-06T02:16:35.665Z,10.57
2018-10-06T02:17:35.651Z,10.7
2018-10-06T02:18:35.645Z,10.67
2018-10-06T02:19:35.373Z,10.59
2018-10-06T02:20:35.619Z,10.63
2018-10-06T02:21:35.634Z,10.66
2018-10-06T02:22:35.604Z,10.58
2018-10-06T02:23:35.082Z,10.57
2018-10-06T02:24:35.583Z,10.61
2018-10-06T02:25:35.565Z,10.55
2018-10-06T02:26:35.558Z,10.59
2018-10-06T02:27:35.292Z,10.57
2018-10-06T02:28:35.543Z,10.54
2018-10-06T02:29:35.018Z,10.51
2018-10-06T02:30:35.270Z,10.52
2018-10-06T02:31:35.513Z,10.51
2018-10-06T02:32:35.502Z,10.47
2018-10-06T02:33:34.978Z,10.44
2018-10-06T02:34:35.500Z,10.47
2018-10-06T02:35:35.213Z,10.44
2018-10-06T02:36:35.468Z,10.38
2018-10-06T02:37:35.453Z,10.29
2018-10-06T02:38:35.446Z,10.31
2018-10-06T02:39:35.430Z,10.23
2018-10-06T02:40:35.413Z,10.26
2018-10-06T02:41:35.152Z,10.21
2018-10-06T02:42:35.398Z,10.26
2018-10-06T02:43:35.386Z,10.2
2018-10-06T02:44:35.121Z,10.23
2018-10-06T02:45:35.367Z,10.26
2018-10-06T02:46:35.366Z,10.18
2018-10-06T02:47:35.359Z,10.2
2018-10-06T02:48:35.079Z,10.21
2018-10-06T02:49:35.329Z,10.21
2018-10-06T02:50:35.054Z,10.15
2018-10-06T02:51:35.049Z,10.2
2018-10-06T02:52:35.296Z,10.17
2018-10-06T02:53:35.034Z,10.17
2018-10-06T02:54:35.020Z,10.2
2018-10-06T02:55:34.751Z,10.23
2018-10-06T02:56:34.995Z,10.14
2018-10-06T02:57:34.992Z,10.17
2018-10-06T02:58:35.225Z,10.17
2018-10-06T02:59:34.971Z,10.17
2018-10-06T03:00:34.958Z,10.26
2018-10-06T03:01:34.938Z,10.31
2018-10-06T03:02:35.197Z,10.21
2018-10-06T03:03:35.176Z,10.23
2018-10-06T03:04:34.664Z,10.26
2018-10-06T03:05:34.909Z,10.23
2018-10-06T03:06:34.892Z,10.26
2018-10-06T03:07:34.889Z,10.23
2018-10-06T03:08:34.869Z,10.23
2018-10-06T03:09:34.863Z,10.25
2018-10-06T03:10:34.852Z,10.23
2018-10-06T03:11:34.837Z,10.32
2018-10-06T03:12:35.094Z,10.31
2018-10-06T03:13:34.822Z,10.29
2018-10-06T03:14:34.816Z,10.25
2018-10-06T03:15:34.799Z,10.25
2018-10-06T03:16:34.789Z,10.26
2018-10-06T03:17:35.035Z,10.31
2018-10-06T03:18:35.027Z,10.25
2018-10-06T03:19:34.755Z,10.21
2018-10-06T03:20:35.011Z,10.31
2018-10-06T03:21:34.994Z,10.26
2018-10-06T03:22:34.729Z,10.25
2018-10-06T03:23:34.974Z,10.29
2018-10-06T03:24:34.969Z,10.25
2018-10-06T03:25:34.952Z,10.23
2018-10-06T03:26:34.940Z,10.28
2018-10-06T03:27:34.932Z,10.23
2018-10-06T03:28:34.938Z,10.18
2018-10-06T03:29:34.906Z,10.23
2018-10-06T03:30:34.903Z,10.23
2018-10-06T03:31:34.632Z,10.29
2018-10-06T03:32:34.882Z,10.31
2018-10-06T03:33:34.876Z,10.38
2018-10-06T03:34:34.607Z,10.36
2018-10-06T03:35:34.842Z,10.41
2018-10-06T03:36:34.836Z,10.46
2018-10-06T03:37:34.830Z,10.41
2018-10-06T03:38:34.573Z,10.47
2018-10-06T03:39:34.805Z,10.44
2018-10-06T03:40:34.792Z,10.52
2018-10-06T03:41:34.532Z,10.47
2018-10-06T03:42:34.775Z,10.47
2018-10-06T03:43:34.764Z,10.47
2018-10-06T03:44:34.758Z,10.57
2018-10-06T03:45:34.742Z,10.54
2018-10-06T03:46:34.224Z,10.55
2018-10-06T03:47:34.728Z,10.52
2018-10-06T03:48:34.454Z,10.54
2018-10-06T03:49:34.445Z,10.59
2018-10-06T03:50:34.181Z,10.58
2018-10-06T03:51:34.686Z,10.63
2018-10-06T03:52:34.416Z,10.65
2018-10-06T03:53:34.664Z,10.65
2018-10-06T03:54:34.650Z,10.59
2018-10-06T03:55:34.639Z,10.55
2018-10-06T03:56:34.647Z,10.65
2018-10-06T03:57:34.623Z,10.61
2018-10-06T03:58:34.612Z,10.67
2018-10-06T03:59:34.598Z,10.65
2018-10-06T04:00:34.586Z,10.67
2018-10-06T04:01:34.320Z,10.66
2018-10-06T04:02:34.570Z,10.7
2018-10-06T04:03:34.561Z,10.69
2018-10-06T04:04:34.552Z,10.67
2018-10-06T04:05:34.547Z,10.7
2018-10-06T04:06:34.275Z,10.69
2018-10-06T04:07:34.259Z,10.66
2018-10-06T04:08:34.507Z,10.61
2018-10-06T04:09:34.503Z,10.63
2018-10-06T04:10:34.488Z,10.58
2018-10-06T04:11:34.475Z,10.57
2018-10-06T04:12:34.468Z,10.54
2018-10-06T04:13:34.456Z,10.57
2018-10-06T04:14:34.452Z,10.54
2018-10-06T04:15:34.180Z,10.55
2018-10-06T04:16:34.428Z,10.55
2018-10-06T04:17:34.161Z,10.54
2018-10-06T04:18:34.399Z,10.54
2018-10-06T04:19:34.398Z,10.55
2018-10-06T04:20:34.389Z,10.46
2018-10-06T04:21:34.377Z,10.41
2018-10-06T04:22:34.363Z,10.35
2018-10-06T04:23:34.371Z,10.32
2018-10-06T04:24:34.353Z,10.31
2018-10-06T04:25:34.079Z,10.38
2018-10-06T04:26:33.809Z,10.41
2018-10-06T04:27:34.316Z,10.31
2018-10-06T04:28:34.576Z,10.33
2018-10-06T04:29:34.296Z,10.28
2018-10-06T04:30:34.293Z,10.31
2018-10-06T04:31:33.770Z,10.29
2018-10-06T04:32:34.266Z,10.29
2018-10-06T04:33:33.993Z,10.25
2018-10-06T04:34:34.252Z,10.33
2018-10-06T04:35:33.969Z,10.32
2018-10-06T04:36:34.217Z,10.23
2018-10-06T04:37:34.207Z,10.32
2018-10-06T04:38:34.197Z,10.25
2018-10-06T04:39:34.190Z,10.25
2018-10-06T04:40:33.928Z,10.31
2018-10-06T04:41:34.165Z,10.28
2018-10-06T04:42:34.162Z,10.26
2018-10-06T04:43:34.147Z,10.26
2018-10-06T04:44:34.143Z,10.28
2018-10-06T04:45:33.872Z,10.23
2018-10-06T04:46:34.125Z,10.25
2018-10-06T04:47:34.108Z,10.29
2018-10-06T04:48:34.102Z,10.28
2018-10-06T04:49:34.085Z,10.26
2018-10-06T04:50:33.820Z,10.26
2018-10-06T04:51:34.067Z,10.29
2018-10-06T04:52:34.052Z,10.23
2018-10-06T04:53:33.815Z,10.33
2018-10-06T04:54:33.776Z,10.31
2018-10-06T04:55:34.025Z,10.2
2018-10-06T04:56:34.015Z,10.26
2018-10-06T04:57:33.494Z,10.21
2018-10-06T04:58:33.998Z,10.23
2018-10-06T04:59:33.987Z,10.23
2018-10-06T05:00:33.970Z,10.2
2018-10-06T05:01:33.706Z,10.25
2018-10-06T05:02:33.951Z,10.26
2018-10-06T05:03:33.513Z,10.31
2018-10-06T05:04:33.940Z,10.25
2018-10-06T05:05:33.667Z,10.32
2018-10-06T05:06:33.913Z,10.33
2018-10-06T05:07:33.905Z,10.36
2018-10-06T05:08:33.636Z,10.38
2018-10-06T05:09:33.884Z,10.33
2018-10-06T05:10:33.622Z,10.38
2018-10-06T05:11:33.858Z,10.41
2018-10-06T05:12:33.847Z,10.38
2018-10-06T05:13:33.843Z,10.33
2018-10-06T05:14:33.570Z,10.44
2018-10-06T05:15:33.826Z,10.44
2018-10-06T05:16:33.809Z,10.49
2018-10-06T05:17:33.811Z,10.44
2018-10-06T05:18:33.272Z,10.51
2018-10-06T05:19:33.772Z,10.54
2018-10-06T05:20:33.760Z,10.52
2018-10-06T05:21:33.498Z,10.54
2018-10-06T05:22:33.749Z,10.44
2018-10-06T05:23:33.925Z,10.47
2018-10-06T05:24:33.729Z,10.51
2018-10-06T05:25:33.720Z,10.54
2018-10-06T05:26:33.449Z,10.57
2018-10-06T05:27:33.446Z,10.51
2018-10-06T05:28:33.683Z,10.51
2018-10-06T05:29:33.682Z,10.57
2018-10-06T05:30:33.411Z,10.55
2018-10-06T05:31:33.655Z,10.55
2018-10-06T05:32:33.639Z,10.57
2018-10-06T05:33:33.631Z,10.57
2018-10-06T05:34:33.621Z,10.52
2018-10-06T05:35:33.613Z,10.61
2018-10-06T05:36:33.602Z,10.54
2018-10-06T05:37:33.592Z,10.59
2018-10-06T05:38:33.578Z,10.63
2018-10-06T05:39:33.616Z,10.63
2018-10-06T05:40:33.566Z,10.59
2018-10-06T05:41:33.548Z,10.65
2018-10-06T05:42:33.285Z,10.67
2018-10-06T05:43:33.281Z,10.7
2018-10-06T05:44:33.523Z,10.69
2018-10-06T05:45:33.510Z,10.72
2018-10-06T05:46:33.909Z,10.7
2018-10-06T05:47:33.488Z,10.69
2018-10-06T05:48:33.483Z,10.72
2018-10-06T05:49:33.471Z,10.7
2018-10-06T05:50:32.943Z,10.66
2018-10-06T05:51:33.441Z,10.66
2018-10-06T05:52:33.189Z,10.67
2018-10-06T05:53:33.168Z,10.67
2018-10-06T05:54:33.422Z,10.67
2018-10-06T05:55:33.410Z,10.69
2018-10-06T05:56:33.398Z,10.69
2018-10-06T05:57:33.128Z,10.69
2018-10-06T05:58:33.376Z,10.72
2018-10-06T05:59:33.386Z,10.72
2018-10-06T06:00:33.106Z,10.77
2018-10-06T06:01:33.088Z,10.75
2018-10-06T06:02:33.081Z,10.76
2018-10-06T06:03:33.338Z,10.79
2018-10-06T06:04:33.314Z,10.75
2018-10-06T06:05:33.307Z,10.84
2018-10-06T06:06:33.043Z,10.92
2018-10-06T06:07:33.294Z,10.92
2018-10-06T06:08:33.274Z,10.87
2018-10-06T06:09:33.008Z,10.88
2018-10-06T06:10:33.261Z,10.98
2018-10-06T06:11:33.245Z,11.02
2018-10-06T06:12:32.984Z,11.05
2018-10-06T06:13:32.715Z,11.02
2018-10-06T06:14:33.215Z,11.18
2018-10-06T06:15:33.402Z,11.1
2018-10-06T06:16:33.193Z,11.18
2018-10-06T06:17:32.925Z,11.18
2018-10-06T06:18:33.179Z,11.13
2018-10-06T06:19:33.173Z,11.27
2018-10-06T06:20:32.911Z,11.35
2018-10-06T06:21:33.155Z,11.35
2018-10-06T06:22:33.136Z,11.39
2018-10-06T06:23:32.873Z,11.42
2018-10-06T06:24:32.878Z,11.48
2018-10-06T06:25:33.107Z,11.59
2018-10-06T06:26:33.104Z,11.57
2018-10-06T06:27:32.848Z,11.67
2018-10-06T06:28:33.082Z,11.67
2018-10-06T06:29:32.815Z,11.79
2018-10-06T06:30:33.061Z,11.91
2018-10-06T06:31:33.378Z,11.89
2018-10-06T06:32:32.528Z,11.88
2018-10-06T06:33:33.038Z,11.98
2018-10-06T06:34:32.771Z,12.13
2018-10-06T06:35:33.013Z,12.08
2018-10-06T06:36:33.009Z,12.19
2018-10-06T06:37:32.749Z,12.16
2018-10-06T06:38:33.220Z,12.19
2018-10-06T06:39:32.726Z,12.23
2018-10-06T06:40:32.460Z,12.4
2018-10-06T06:41:32.707Z,12.29
2018-10-06T06:42:32.953Z,12.38
2018-10-06T06:43:33.076Z,12.41
2018-10-06T06:44:33.204Z,12.41
2018-10-06T06:45:32.675Z,12.51
2018-10-06T06:46:32.662Z,12.47
2018-10-06T06:47:32.907Z,12.56
2018-10-06T06:48:32.896Z,12.63
2018-10-06T06:49:32.891Z,12.59
2018-10-06T06:50:32.627Z,12.62
2018-10-06T06:51:32.873Z,12.66
2018-10-06T06:52:32.867Z,12.63
2018-10-06T06:53:32.857Z,12.76
2018-10-06T06:54:32.845Z,12.78
2018-10-06T06:55:32.583Z,12.84
2018-10-06T06:56:32.831Z,12.84
2018-10-06T06:57:32.822Z,12.92
2018-10-06T06:58:32.811Z,12.92
2018-10-06T06:59:32.545Z,12.95
2018-10-06T07:00:32.798Z,13.06
2018-10-06T07:01:32.534Z,13.13
2018-10-06T07:02:32.781Z,13.1
2018-10-06T07:03:32.773Z,13.21
2018-10-06T07:04:32.761Z,13.2
2018-10-06T07:05:32.850Z,13.27
2018-10-06T07:06:32.490Z,13.24
2018-10-06T07:07:32.737Z,13.27
2018-10-06T07:08:32.727Z,13.29
2018-10-06T07:09:32.723Z,13.45
2018-10-06T07:10:32.710Z,13.53
2018-10-06T07:11:32.452Z,13.54
2018-10-06T07:12:32.925Z,13.5
2018-10-06T07:13:32.686Z,13.48
2018-10-06T07:14:32.426Z,13.6
2018-10-06T07:15:32.672Z,13.62
2018-10-06T07:16:32.662Z,13.68
2018-10-06T07:17:32.404Z,13.72
2018-10-06T07:18:32.958Z,13.69
2018-10-06T07:19:32.388Z,13.69
2018-10-06T07:20:32.380Z,13.83
2018-10-06T07:21:32.627Z,13.78
2018-10-06T07:22:32.623Z,13.75
2018-10-06T07:23:32.619Z,13.75
2018-10-06T07:24:32.772Z,13.83
2018-10-06T07:25:32.379Z,13.87
2018-10-06T07:26:32.590Z,13.88
2018-10-06T07:27:32.578Z,13.9
2018-10-06T07:28:32.414Z,13.95
2018-10-06T07:29:32.305Z,13.91
2018-10-06T07:30:32.557Z,13.93
2018-10-06T07:31:32.568Z,13.93
2018-10-06T07:32:32.038Z,13.9
2018-10-06T07:33:32.275Z,13.93
2018-10-06T07:34:32.527Z,14.01
2018-10-06T07:35:32.271Z,13.97
2018-10-06T07:36:32.518Z,13.97
2018-10-06T07:37:32.514Z,14.01
2018-10-06T07:38:32.494Z,13.97
2018-10-06T07:39:32.233Z,14.06
2018-10-06T07:40:32.488Z,14.16
2018-10-06T07:41:32.473Z,14.05
2018-10-06T07:42:32.467Z,14.12
2018-10-06T07:43:32.202Z,14.01
2018-10-06T07:44:31.941Z,14.05
2018-10-06T07:45:32.192Z,14.09
2018-10-06T07:46:32.434Z,14.09
2018-10-06T07:47:32.436Z,14.09
2018-10-06T07:48:32.168Z,14.08
2018-10-06T07:49:32.417Z,14.15
2018-10-06T07:50:32.420Z,14.09
2018-10-06T07:51:32.405Z,14.19
2018-10-06T07:52:32.401Z,14.26
2018-10-06T07:53:32.383Z,14.21
2018-10-06T07:54:32.388Z,14.26
2018-10-06T07:55:32.376Z,14.24
2018-10-06T07:56:32.364Z,14.28
2018-10-06T07:57:31.849Z,14.21
2018-10-06T07:58:32.353Z,14.27
2018-10-06T07:59:32.539Z,14.15
2018-10-06T08:00:32.079Z,14.2
2018-10-06T08:01:32.075Z,14.23
2018-10-06T08:02:32.062Z,14.2
2018-10-06T08:03:32.378Z,14.19
2018-10-06T08:04:32.306Z,14.23
2018-10-06T08:05:32.298Z,14.21
2018-10-06T08:06:32.589Z,14.26
2018-10-06T08:07:32.290Z,14.27
2018-10-06T08:08:32.282Z,14.27
2018-10-06T08:09:32.265Z,14.28
2018-10-06T08:10:32.265Z,14.28
2018-10-06T08:11:32.259Z,14.31
2018-10-06T08:12:32.249Z,14.3
2018-10-06T08:13:32.246Z,14.26
2018-10-06T08:14:32.241Z,14.33
2018-10-06T08:15:32.237Z,14.26
2018-10-06T08:16:32.225Z,14.27
2018-10-06T08:17:32.214Z,14.26
2018-10-06T08:18:31.956Z,14.31
2018-10-06T08:19:32.211Z,14.24
2018-10-06T08:20:32.196Z,14.23
2018-10-06T08:21:32.188Z,14.28
2018-10-06T08:22:31.926Z,14.41
2018-10-06T08:23:32.174Z,14.34
2018-10-06T08:24:31.908Z,14.3
2018-10-06T08:25:32.161Z,14.42
2018-10-06T08:26:32.157Z,14.44
2018-10-06T08:27:32.145Z,14.44
2018-10-06T08:28:32.142Z,14.44
2018-10-06T08:29:32.130Z,14.46
2018-10-06T08:30:31.869Z,14.44
2018-10-06T08:31:32.130Z,14.49
2018-10-06T08:32:31.854Z,14.49
2018-10-06T08:33:31.852Z,14.64
2018-10-06T08:34:32.098Z,14.69
2018-10-06T08:35:32.103Z,14.66
2018-10-06T08:36:32.083Z,14.71
2018-10-06T08:37:31.822Z,14.75
2018-10-06T08:38:31.812Z,14.93
2018-10-06T08:39:32.065Z,15.05
2018-10-06T08:40:32.053Z,15.04
2018-10-06T08:41:31.797Z,15.07
2018-10-06T08:42:32.061Z,15.13
2018-10-06T08:43:31.778Z,15.2
2018-10-06T08:44:31.777Z,15.19
2018-10-06T08:45:31.767Z,15.25
2018-10-06T08:46:32.021Z,15.37
2018-10-06T08:47:32.011Z,15.33
2018-10-06T08:48:32.003Z,15.34
2018-10-06T08:49:32.013Z,15.37
2018-10-06T08:50:31.992Z,15.43
2018-10-06T08:51:31.991Z,15.45
2018-10-06T08:52:31.728Z,15.47
2018-10-06T08:53:31.975Z,15.53
2018-10-06T08:54:31.972Z,15.58
2018-10-06T08:55:31.963Z,15.59
2018-10-06T08:56:32.299Z,15.7
2018-10-06T08:57:32.055Z,15.7
2018-10-06T08:58:31.690Z,15.83
2018-10-06T08:59:31.938Z,15.93
2018-10-06T09:00:31.683Z,15.98
2018-10-06T09:01:31.928Z,16.07
2018-10-06T09:02:31.669Z,16.1
2018-10-06T09:03:31.916Z,16.18
2018-10-06T09:04:31.840Z,16.34
2018-10-06T09:05:31.904Z,16.34
2018-10-06T09:06:31.640Z,16.27
2018-10-06T09:07:31.639Z,16.42
2018-10-06T09:08:31.635Z,16.55
2018-10-06T09:09:31.624Z,16.69
2018-10-06T09:10:31.872Z,16.74
2018-10-06T09:11:31.864Z,16.84
2018-10-06T09:12:31.877Z,16.97
2018-10-06T09:13:31.868Z,16.94
2018-10-06T09:14:31.599Z,16.99
2018-10-06T09:15:31.847Z,16.99
2018-10-06T09:16:31.838Z,17.06
2018-10-06T09:17:31.831Z,17.15
2018-10-06T09:18:31.324Z,17.24
2018-10-06T09:19:31.827Z,17.28
2018-10-06T09:20:31.563Z,17.39
2018-10-06T09:21:31.811Z,17.42
2018-10-06T09:22:31.804Z,17.47
2018-10-06T09:23:31.802Z,17.6
2018-10-06T09:24:31.800Z,17.6
2018-10-06T09:25:31.538Z,17.66
2018-10-06T09:26:31.793Z,17.77
2018-10-06T09:27:31.532Z,17.88
2018-10-06T09:28:31.523Z,17.94
2018-10-06T09:29:31.531Z,18.14
2018-10-06T09:30:31.525Z,18.03
2018-10-06T09:31:31.769Z,18.19
2018-10-06T09:32:31.764Z,18.26
2018-10-06T09:33:31.751Z,18.34
2018-10-06T09:34:31.493Z,18.38
2018-10-06T09:35:31.490Z,18.38
2018-10-06T09:36:31.738Z,18.54
2018-10-06T09:37:31.743Z,18.6
2018-10-06T09:38:31.736Z,18.65
2018-10-06T09:39:31.478Z,18.75
2018-10-06T09:40:31.472Z,18.81
2018-10-06T09:41:31.729Z,18.89
2018-10-06T09:42:31.733Z,18.94
2018-10-06T09:43:31.760Z,19.07
2018-10-06T09:44:31.713Z,19.15
2018-10-06T09:45:31.717Z,19.27
2018-10-06T09:46:31.702Z,19.2
2018-10-06T09:47:31.697Z,19.28
2018-10-06T09:48:31.694Z,19.2
2018-10-06T09:49:31.692Z,19.31
2018-10-06T09:50:31.689Z,19.35
2018-10-06T09:51:31.428Z,19.35
2018-10-06T09:52:31.684Z,19.38
2018-10-06T09:53:31.732Z,19.56
2018-10-06T09:54:31.423Z,19.56
2018-10-06T09:55:31.416Z,19.67
2018-10-06T09:56:31.666Z,19.78
2018-10-06T09:57:31.407Z,19.97
2018-10-06T09:58:31.682Z,20.05
2018-10-06T09:59:31.587Z,20.04
2018-10-06T10:00:31.655Z,20.25
2018-10-06T10:01:31.655Z,20.35
2018-10-06T10:02:31.657Z,20.38
2018-10-06T10:03:31.389Z,20.49
2018-10-06T10:04:31.384Z,20.41
2018-10-06T10:05:32.009Z,20.54
2018-10-06T10:06:31.387Z,20.6
2018-10-06T10:07:31.635Z,20.61
2018-10-06T10:08:31.633Z,20.61
2018-10-06T10:09:31.469Z,20.58
2018-10-06T10:10:31.630Z,20.67
2018-10-06T10:11:31.377Z,20.6
2018-10-06T10:12:31.485Z,20.78
2018-10-06T10:13:31.369Z,20.74
2018-10-06T10:14:31.622Z,20.86
2018-10-06T10:15:32.059Z,20.86
2018-10-06T10:16:31.618Z,20.88
2018-10-06T10:17:31.994Z,20.97
2018-10-06T10:18:32.107Z,20.93
2018-10-06T10:19:31.612Z,20.9
2018-10-06T10:20:31.604Z,20.85
2018-10-06T10:21:31.604Z,20.82
2018-10-06T10:22:31.847Z,20.85
2018-10-06T10:23:31.154Z,20.72
2018-10-06T10:24:31.340Z,20.68
2018-10-06T10:25:31.338Z,20.54
2018-10-06T10:26:31.332Z,20.37
2018-10-06T10:27:31.588Z,20.27
2018-10-06T10:28:31.569Z,20.19
2018-10-06T10:29:31.333Z,20.08
2018-10-06T10:30:31.583Z,20.05
2018-10-06T10:31:31.580Z,20.02
2018-10-06T10:32:31.579Z,19.97
2018-10-06T10:33:31.578Z,19.89
2018-10-06T10:34:31.476Z,19.95
2018-10-06T10:35:31.574Z,19.92
2018-10-06T10:36:31.576Z,19.89
2018-10-06T10:37:31.070Z,19.87
2018-10-06T10:38:31.571Z,19.98
2018-10-06T10:39:31.760Z,19.97
2018-10-06T10:40:31.563Z,20.01
2018-10-06T10:41:31.561Z,19.97
2018-10-06T10:42:31.559Z,20.02
2018-10-06T10:43:31.298Z,20.01
2018-10-06T10:44:31.889Z,20.19
2018-10-06T10:45:31.297Z,20.27
2018-10-06T10:46:31.555Z,20.38
2018-10-06T10:47:31.036Z,20.41
2018-10-06T10:48:31.715Z,20.64
2018-10-06T10:49:31.708Z,20.71
2018-10-06T10:50:31.360Z,20.83
2018-10-06T10:51:31.282Z,20.88
2018-10-06T10:52:31.281Z,21.04
2018-10-06T10:53:31.536Z,21.12
2018-10-06T10:54:31.336Z,21.22
2018-10-06T10:55:31.481Z,21.27
2018-10-06T10:56:31.530Z,21.27
2018-10-06T10:57:31.274Z,21.37
2018-10-06T10:58:31.273Z,21.36
2018-10-06T10:59:31.890Z,21.38
2018-10-06T11:00:31.441Z,21.43
2018-10-06T11:01:31.267Z,21.33
2018-10-06T11:02:31.531Z,21.23
2018-10-06T11:03:31.260Z,21.23
2018-10-06T11:04:31.522Z,21.27
2018-10-06T11:05:31.524Z,21.21
2018-10-06T11:06:31.512Z,21.31
2018-10-06T11:07:31.513Z,21.22
2018-10-06T11:08:31.515Z,21.28
2018-10-06T11:09:31.254Z,21.25
2018-10-06T11:10:31.512Z,21.25
2018-10-06T11:11:31.399Z,21.22
2018-10-06T11:12:31.510Z,21.41
2018-10-06T11:13:31.568Z,21.45
2018-10-06T11:14:31.246Z,21.49
2018-10-06T11:15:31.247Z,21.62
2018-10-06T11:16:31.242Z,21.74
2018-10-06T11:17:31.505Z,21.76
2018-10-06T11:18:31.500Z,21.8
2018-10-06T11:19:31.497Z,21.85
2018-10-06T11:20:31.494Z,21.89
2018-10-06T11:21:31.498Z,21.99
2018-10-06T11:22:31.501Z,21.86
2018-10-06T11:23:31.498Z,21.8
2018-10-06T11:24:31.235Z,21.78
2018-10-06T11:25:31.491Z,21.64
2018-10-06T11:26:31.497Z,21.7
2018-10-06T11:27:31.488Z,21.73
2018-10-06T11:28:31.231Z,21.76
2018-10-06T11:29:31.487Z,21.7
2018-10-06T11:30:31.493Z,21.66
2018-10-06T11:31:30.976Z,21.61
2018-10-06T11:32:31.233Z,21.62
2018-10-06T11:33:31.493Z,21.52
2018-10-06T11:34:31.479Z,21.51
2018-10-06T11:35:31.480Z,21.46
2018-10-06T11:36:31.536Z,21.58
2018-10-06T11:37:31.531Z,21.45
2018-10-06T11:38:30.976Z,21.41
2018-10-06T11:39:31.223Z,21.46
2018-10-06T11:40:31.476Z,21.46
2018-10-06T11:41:31.223Z,21.46
2018-10-06T11:42:31.275Z,21.49
2018-10-06T11:43:31.474Z,21.62
2018-10-06T11:44:31.223Z,21.68
2018-10-06T11:45:31.226Z,21.71
2018-10-06T11:46:31.213Z,21.83
2018-10-06T11:47:31.525Z,22.05
2018-10-06T11:48:31.470Z,22.16
2018-10-06T11:49:31.216Z,22.22
2018-10-06T11:50:31.374Z,22.29
2018-10-06T11:51:31.468Z,22.38
2018-10-06T11:52:31.471Z,22.48
2018-10-06T11:53:31.463Z,22.48
2018-10-06T11:54:31.465Z,22.63
2018-10-06T11:55:31.471Z,22.73
2018-10-06T11:56:31.206Z,22.91
2018-10-06T11:57:31.206Z,23.18
2018-10-06T11:58:31.470Z,23.22
2018-10-06T11:59:31.468Z,23.37
2018-10-06T12:00:31.712Z,23.41
2018-10-06T12:01:31.465Z,23.42
2018-10-06T12:02:31.210Z,23.45
2018-10-06T12:03:30.954Z,23.48
2018-10-06T12:04:30.952Z,23.53
2018-10-06T12:05:31.204Z,23.64
2018-10-06T12:06:31.472Z,23.59
2018-10-06T12:07:31.210Z,23.59
2018-10-06T12:08:31.471Z,23.5
2018-10-06T12:09:31.463Z,23.52
2018-10-06T12:10:31.465Z,23.48
2018-10-06T12:11:31.216Z,23.37
2018-10-06T12:12:30.955Z,23.35
2018-10-06T12:13:31.468Z,23.12
2018-10-06T12:14:31.469Z,23.04
2018-10-06T12:15:31.466Z,22.99
2018-10-06T12:16:31.471Z,23
2018-10-06T12:17:31.473Z,22.91
2018-10-06T12:18:31.473Z,22.79
2018-10-06T12:19:30.964Z,22.75
2018-10-06T12:20:31.646Z,22.55
2018-10-06T12:21:31.505Z,22.38
2018-10-06T12:22:31.214Z,22.41
2018-10-06T12:23:31.473Z,22.3
2018-10-06T12:24:31.480Z,22.26
2018-10-06T12:25:31.474Z,22.16
2018-10-06T12:26:31.225Z,22.24
2018-10-06T12:27:31.217Z,22.26
2018-10-06T12:28:31.215Z,22.29
2018-10-06T12:29:31.477Z,22.41
2018-10-06T12:30:31.220Z,22.36
2018-10-06T12:31:31.475Z,22.33
2018-10-06T12:32:31.465Z,22.29
2018-10-06T12:33:31.222Z,22.23
2018-10-06T12:34:31.551Z,22.27
2018-10-06T12:35:32.204Z,22.24
2018-10-06T12:36:31.469Z,22.33
2018-10-06T12:37:31.470Z,22.33
2018-10-06T12:38:31.213Z,22.33
2018-10-06T12:39:31.217Z,22.38
2018-10-06T12:40:31.467Z,22.39
2018-10-06T12:41:31.494Z,22.49
2018-10-06T12:42:31.466Z,22.39
2018-10-06T12:43:31.212Z,22.41
2018-10-06T12:44:31.214Z,22.34
2018-10-06T12:45:31.468Z,22.38
2018-10-06T12:46:31.478Z,22.26
2018-10-06T12:47:31.220Z,22.29
2018-10-06T12:48:31.479Z,22.24
2018-10-06T12:49:31.467Z,22.38
2018-10-06T12:50:31.476Z,22.26
2018-10-06T12:51:31.700Z,22.39
2018-10-06T12:52:31.469Z,22.39
2018-10-06T12:53:31.216Z,22.42
2018-10-06T12:54:31.468Z,22.39